Time;durP1;ratioP1;P1;durP2;ratioP2;P2;SDS_P1;SDS_P2;PMS_P1;PMS_P2;Temp;Humidity;BMP_temperature;BMP_pressure;BME280_temperature;BME280_humidity;BME280_pressure;Samples;Min_cycle;Max_cycle;Signal;HPM_P1;HPM_P2
2022/12/13 00:01:23;;;;;;;0.00;0.00;;;;;;;-0.96;90.92;99551.25;6271755;22;20000;-75
2022/12/13 00:03:51;;;;;;;0.00;0.00;;;;;;;-1.05;90.57;99547.19;6246456;22;20012;-76
2022/12/13 00:06:17;;;;;;;0.00;0.00;;;;;;;-1.13;91.40;99534.78;6220777;22;20083;-76
2022/12/13 00:08:42;;;;;;;0.00;0.00;;;;;;;-1.16;91.46;99539.78;6213233;22;20141;-76
2022/12/13 00:11:12;;;;;;;0.00;0.00;;;;;;;-1.12;91.02;99546.38;6219798;22;20030;-75
2022/12/13 00:13:38;;;;;;;0.00;0.00;;;;;;;-1.17;91.60;99533.56;6239440;22;20011;-78
2022/12/13 00:16:06;;;;;;;0.10;0.10;;;;;;;-1.20;90.93;99538.53;6218962;22;20007;-76
2022/12/13 00:18:32;;;;;;;0.00;0.00;;;;;;;-1.28;90.89;99531.56;6238136;22;20581;-79
2022/12/13 00:20:57;;;;;;;0.05;0.05;;;;;;;-1.32;91.53;99528.44;6218036;22;20011;-77
2022/12/13 00:23:23;;;;;;;0.10;0.10;;;;;;;-1.35;91.71;99525.38;6243930;22;20445;-77
2022/12/13 00:25:48;;;;;;;0.00;0.00;;;;;;;-1.56;91.68;99499.63;6241113;22;20422;-79
2022/12/13 00:28:15;;;;;;;0.10;0.10;;;;;;;-1.54;91.05;99510.97;6274650;22;20008;-78
2022/12/13 00:30:43;;;;;;;0.00;0.00;;;;;;;-1.47;91.40;99533.25;6270530;22;20053;-78
2022/12/13 00:33:09;;;;;;;0.00;0.00;;;;;;;-1.78;91.90;99484.59;6248091;22;20502;-79
2022/12/13 00:35:43;;;;;;;0.00;0.00;;;;;;;-1.70;90.97;99507.69;6243145;22;20036;-78
2022/12/13 00:38:09;;;;;;;0.10;0.10;;;;;;;-1.86;91.55;99492.84;6248563;22;20000;-77
2022/12/13 00:40:34;;;;;;;0.10;0.10;;;;;;;-1.80;91.35;99518.00;6243375;22;20012;-78
2022/12/13 00:42:59;;;;;;;0.00;0.00;;;;;;;-1.96;91.65;99497.81;6221953;22;20438;-80
2022/12/13 00:45:27;;;;;;;0.00;0.00;;;;;;;-1.98;92.54;99494.53;6197367;22;20098;-77
2022/12/13 00:47:52;;;;;;;0.00;0.00;;;;;;;-1.88;92.53;99515.53;6243825;22;20011;-77
2022/12/13 00:50:18;;;;;;;0.00;0.00;;;;;;;-1.99;92.34;99514.31;6244779;22;20008;-77
2022/12/13 00:52:43;;;;;;;0.00;0.00;;;;;;;-2.02;92.53;99515.53;6219280;22;20786;-78
2022/12/13 00:55:09;;;;;;;0.00;0.00;;;;;;;-2.03;92.87;99515.75;6189133;22;20422;-78
2022/12/13 00:57:39;;;;;;;0.00;0.00;;;;;;;-2.08;93.04;99527.06;6217849;22;20038;-78
2022/12/13 01:00:05;;;;;;;0.00;0.00;;;;;;;-2.08;92.59;99527.06;6243537;22;20011;-79
2022/12/13 01:02:31;;;;;;;0.00;0.00;;;;;;;-2.18;92.71;99526.66;6273133;22;20012;-78
2022/12/13 01:04:56;;;;;;;0.00;0.00;;;;;;;-2.31;92.41;99514.91;6214967;22;20375;-78
2022/12/13 01:07:22;;;;;;;0.10;0.10;;;;;;;-2.23;92.22;99529.13;6244319;22;20018;-77
2022/12/13 01:09:47;;;;;;;0.00;0.00;;;;;;;-2.29;93.08;99528.09;6242198;22;20489;-77
2022/12/13 01:12:13;;;;;;;0.00;0.00;;;;;;;-2.34;93.09;99522.50;6216024;22;20050;-77
2022/12/13 01:14:40;;;;;;;0.00;0.00;;;;;;;-2.35;92.66;99529.75;6219808;22;20000;-77
2022/12/13 01:17:06;;;;;;;0.00;0.00;;;;;;;-2.44;92.47;99517.53;6215186;22;20706;-77
2022/12/13 01:19:32;;;;;;;0.00;0.00;;;;;;;-2.49;93.58;99512.81;6244913;22;20000;-76
2022/12/13 01:22:02;;;;;;;0.10;0.10;;;;;;;-2.48;93.14;99522.50;6214441;22;20023;-77
2022/12/13 01:24:28;;;;;;;0.00;0.00;;;;;;;-2.44;93.92;99528.25;6272628;22;20010;-77
2022/12/13 01:26:54;;;;;;;0.00;0.00;;;;;;;-2.48;93.37;99532.41;6240490;22;20018;-77
2022/12/13 01:29:21;;;;;;;0.10;0.10;;;;;;;-2.47;93.01;99528.66;6198698;22;20438;-76
2022/12/13 01:31:47;;;;;;;0.00;0.00;;;;;;;-2.54;93.95;99519.78;6248269;22;20027;-76
2022/12/13 01:34:15;;;;;;;0.00;0.00;;;;;;;-2.54;93.26;99517.13;6245212;22;20003;-77
2022/12/13 01:36:42;;;;;;;0.00;0.00;;;;;;;-2.50;93.64;99529.06;6220255;22;20003;-77
2022/12/13 01:39:09;;;;;;;0.00;0.00;;;;;;;-2.52;92.91;99533.81;6217096;22;20090;-76
2022/12/13 01:41:35;;;;;;;0.00;0.00;;;;;;;-2.57;92.77;99529.06;6246549;22;20453;-77
2022/12/13 01:44:05;;;;;;;0.00;0.00;;;;;;;-2.62;93.80;99520.81;6246325;22;20008;-78
2022/12/13 01:46:32;;;;;;;0.10;0.10;;;;;;;-2.55;94.28;99536.91;6217736;22;20024;-77
2022/12/13 01:49:07;;;;;;;0.00;0.00;;;;;;;-2.53;93.38;99529.47;6242487;23;20004;-77
2022/12/13 01:51:35;;;;;;;0.00;0.00;;;;;;;-2.51;93.83;99528.25;6214545;23;20083;-77
2022/12/13 01:54:03;;;;;;;0.00;0.00;;;;;;;-2.56;94.36;99519.19;6216151;23;20000;-79
2022/12/13 01:56:35;;;;;;;0.00;0.00;;;;;;;-2.63;93.77;99503.94;6240502;23;20000;-78
2022/12/13 01:59:04;;;;;;;0.00;0.00;;;;;;;-2.56;94.10;99521.84;6215872;23;20000;-77
2022/12/13 02:01:30;;;;;;;0.00;0.00;;;;;;;-2.59;93.82;99524.94;6212912;23;20008;-78
2022/12/13 02:03:55;;;;;;;0.00;0.00;;;;;;;-2.68;94.04;99519.75;6189982;23;20011;-77
2022/12/13 02:06:32;;;;;;;0.00;0.00;;;;;;;-2.64;93.56;99526.38;6188775;23;20008;-78
2022/12/13 02:09:01;;;;;;;0.00;0.00;;;;;;;-2.69;93.76;99515.44;6216126;23;20027;-77
2022/12/13 02:11:27;;;;;;;0.00;0.00;;;;;;;-2.66;93.58;99519.56;6191440;23;20008;-78
2022/12/13 02:13:53;;;;;;;0.00;0.00;;;;;;;-2.75;93.89;99518.91;6211285;23;20004;-78
2022/12/13 02:16:39;;;;;;;0.00;0.00;;;;;;;-2.66;93.69;99531.13;6193860;23;20106;-78
2022/12/13 02:19:17;;;;;;;0.00;0.00;;;;;;;-2.66;93.51;99531.13;6215355;23;20087;-78
2022/12/13 02:22:01;;;;;;;0.10;0.10;;;;;;;-2.70;94.60;99535.22;6211671;23;20007;-77
2022/12/13 02:24:38;;;;;;;0.00;0.00;;;;;;;-2.70;94.44;99551.28;6213758;23;20062;-77
2022/12/13 02:27:31;;;;;;;0.00;0.00;;;;;;;-2.72;94.22;99547.13;6211286;23;20008;-77
2022/12/13 02:30:21;;;;;;;0.00;0.00;;;;;;;-2.73;94.16;99546.31;6242924;23;20004;-77
2022/12/13 02:33:07;;;;;;;0.10;0.10;;;;;;;-2.69;95.00;99542.19;6239386;23;20054;-77
2022/12/13 02:35:57;;;;;;;0.10;0.10;;;;;;;-2.69;94.08;99539.50;6211183;23;20043;-78
2022/12/13 02:38:35;;;;;;;0.10;0.10;;;;;;;-2.66;94.54;99538.28;6218978;23;20004;-77
2022/12/13 02:41:26;;;;;;;0.10;0.10;;;;;;;-2.63;93.96;99545.91;6210539;23;20008;-77
2022/12/13 02:44:05;;;;;;;0.00;0.00;;;;;;;-2.66;94.35;99541.81;6240343;23;20323;-77
2022/12/13 02:46:37;;;;;;;0.08;0.08;;;;;;;-2.65;94.16;99535.41;6232674;22;20443;-77
2022/12/13 02:49:04;;;;;;;0.00;0.00;;;;;;;-2.68;94.54;99527.78;6242366;23;20051;-77
2022/12/13 02:51:31;;;;;;;0.00;0.00;;;;;;;-2.57;93.91;99552.31;6238628;23;20007;-77
2022/12/13 02:53:59;;;;;;;0.00;0.00;;;;;;;-2.71;93.72;99512.13;6243586;23;20031;-78
2022/12/13 02:56:24;;;;;;;0.00;0.00;;;;;;;-2.60;94.10;99534.00;6235451;23;20015;-76
2022/12/13 02:58:52;;;;;;;0.00;0.00;;;;;;;-2.45;95.03;99542.69;6191335;23;20323;-77
2022/12/13 03:01:30;;;;;;;0.00;0.00;;;;;;;-2.39;93.59;99547.22;6243037;23;20040;-76
2022/12/13 03:03:58;;;;;;;0.10;0.10;;;;;;;-2.40;94.77;99545.56;6244547;23;20096;-76
2022/12/13 03:06:45;;;;;;;0.00;0.00;;;;;;;-2.47;94.00;99534.03;6254711;23;20066;-76
2022/12/13 03:09:39;;;;;;;0.00;0.00;;;;;;;-2.52;93.76;99525.78;6244270;23;20419;-77
2022/12/13 03:15:05;;;;;;;0.00;0.00;;;;;;;-2.59;94.25;99536.47;6240997;23;20090;-77
2022/12/13 03:17:40;;;;;;;0.00;0.00;;;;;;;-2.61;94.28;99543.03;6240804;23;20011;-77
2022/12/13 03:20:07;;;;;;;0.00;0.00;;;;;;;-2.61;94.69;99543.88;6240574;23;20423;-77
2022/12/13 03:22:33;;;;;;;0.00;0.00;;;;;;;-2.64;94.62;99544.28;6241777;23;20012;-77
2022/12/13 03:24:59;;;;;;;0.03;0.03;;;;;;;-2.64;94.72;99542.44;6190803;23;20408;-77
2022/12/13 03:27:24;;;;;;;0.00;0.00;;;;;;;-2.65;94.27;99548.81;6214121;23;20015;-78
2022/12/13 03:29:50;;;;;;;0.00;0.00;;;;;;;-2.71;94.17;99527.38;6194012;23;20014;-78
2022/12/13 03:32:15;;;;;;;0.10;0.10;;;;;;;-2.71;94.66;99528.19;6247044;23;20015;-77
2022/12/13 03:34:40;;;;;;;0.00;0.00;;;;;;;-2.78;94.05;99521.19;6194139;23;20035;-76
2022/12/13 03:37:06;;;;;;;0.00;0.00;;;;;;;-2.75;94.49;99526.13;6241768;23;20039;-77
2022/12/13 03:39:31;;;;;;;0.00;0.00;;;;;;;-2.78;94.38;99522.00;6243708;23;20012;-76
2022/12/13 03:41:57;;;;;;;0.00;0.00;;;;;;;-2.84;94.83;99512.91;6220070;23;20035;-75
2022/12/13 03:44:23;;;;;;;0.10;0.10;;;;;;;-2.89;94.79;99512.72;6242924;23;20004;-77
2022/12/13 03:46:48;;;;;;;0.10;0.10;;;;;;;-2.91;94.84;99506.72;6194674;23;20083;-76
2022/12/13 03:49:13;;;;;;;0.00;0.00;;;;;;;-2.93;95.07;99502.63;6219104;23;20087;-76
2022/12/13 03:51:39;;;;;;;0.10;0.10;;;;;;;-2.95;95.04;99515.34;6242653;23;20003;-77
2022/12/13 03:54:04;;;;;;;0.00;0.00;;;;;;;-2.97;94.55;99506.72;6219462;23;20031;-76
2022/12/13 03:56:30;;;;;;;0.10;0.10;;;;;;;-2.93;94.21;99505.28;6212903;23;20099;-76
2022/12/13 03:58:55;;;;;;;0.10;0.10;;;;;;;-2.94;94.41;99509.78;6242013;23;20053;-76
2022/12/13 04:01:22;;;;;;;0.00;0.00;;;;;;;-2.90;94.99;99491.50;6188922;23;20015;-77
2022/12/13 04:03:47;;;;;;;0.10;0.10;;;;;;;-2.97;95.23;99475.41;6216588;23;20016;-75
2022/12/13 04:06:14;;;;;;;0.10;0.10;;;;;;;-2.74;94.88;99493.81;6214000;23;20095;-76
2022/12/13 04:08:39;;;;;;;0.10;0.10;;;;;;;-2.66;94.31;99493.63;6240064;22;20000;-76
2022/12/13 04:13:49;;;;;;;;;;;;;;;-2.63;94.03;99503.94;6238188;23;20015;-75
2022/12/13 04:16:15;;;;;;;0.10;0.10;;;;;;;-2.65;94.52;99505.16;6234953;23;19907;-75
2022/12/13 04:18:40;;;;;;;0.00;0.00;;;;;;;-2.67;94.54;99491.16;6211914;23;20019;-76
2022/12/13 04:21:14;;;;;;;0.00;0.00;;;;;;;-2.70;94.38;99486.19;6210497;23;20011;-80
2022/12/13 04:23:42;;;;;;;0.10;0.10;;;;;;;-2.71;94.09;99487.25;6232081;23;20035;-76
2022/12/13 04:26:12;;;;;;;0.00;0.00;;;;;;;-2.62;93.91;99494.03;6191302;23;20008;-76
2022/12/13 04:28:57;;;;;;;0.03;0.03;;;;;;;-2.76;93.76;99471.78;6233215;23;20012;-77
2022/12/13 04:31:22;;;;;;;;;;;;;;;-2.56;94.74;99509.28;6239495;23;20139;-77
2022/12/13 04:33:48;;;;;;;0.00;0.00;;;;;;;-2.62;94.21;99504.75;6235274;23;19942;-77
2022/12/13 04:36:18;;;;;;;0.10;0.10;;;;;;;-2.68;94.21;99490.31;6215541;23;20478;-77
2022/12/13 04:38:45;;;;;;;0.00;0.00;;;;;;;-2.59;94.81;99503.53;6237531;23;20012;-77
2022/12/13 04:41:17;;;;;;;0.00;0.00;;;;;;;-2.64;94.43;99491.56;6214405;23;20114;-76
2022/12/13 04:43:43;;;;;;;0.00;0.00;;;;;;;-2.53;94.27;99498.16;6240681;23;20011;-76
2022/12/13 04:46:09;;;;;;;0.00;0.00;;;;;;;-2.51;94.24;99492.63;6235730;22;20431;-77
2022/12/13 04:48:35;;;;;;;0.00;0.00;;;;;;;-2.51;94.85;99487.25;6212271;23;20015;-76
2022/12/13 04:51:01;;;;;;;0.00;0.00;;;;;;;-2.47;94.32;99488.50;6213902;23;20012;-77
2022/12/13 04:53:27;;;;;;;0.00;0.00;;;;;;;-2.42;93.34;99494.09;6238856;23;20011;-75
2022/12/13 04:55:53;;;;;;;0.00;0.00;;;;;;;-2.42;94.64;99494.09;6216217;23;20022;-77
2022/12/13 04:58:18;;;;;;;0.00;0.00;;;;;;;-2.43;94.54;99497.78;6190593;23;20091;-77
2022/12/13 05:00:44;;;;;;;0.00;0.00;;;;;;;-2.39;93.40;99504.38;6216741;23;20087;-77
2022/12/13 05:03:09;;;;;;;0.00;0.00;;;;;;;-2.39;94.46;99498.22;6237393;22;20538;-78
2022/12/13 05:05:39;;;;;;;0.00;0.00;;;;;;;-2.40;93.76;99500.06;6215366;23;20308;-75
2022/12/13 05:08:05;;;;;;;0.00;0.00;;;;;;;-2.38;93.08;99500.69;6238885;23;20010;-75
2022/12/13 05:10:30;;;;;;;0.10;0.10;;;;;;;-2.38;93.58;99506.03;6240094;23;20000;-76
2022/12/13 05:12:58;;;;;;;0.00;0.00;;;;;;;-2.43;93.34;99505.00;6242669;23;20008;-77
2022/12/13 05:15:23;;;;;;;0.00;0.00;;;;;;;-2.40;93.62;99517.97;6237074;23;20006;-77
2022/12/13 05:17:48;;;;;;;0.00;0.00;;;;;;;-2.45;93.74;99515.91;6240883;23;20574;-77
2022/12/13 05:20:16;;;;;;;0.00;0.00;;;;;;;-2.42;93.06;99520.03;6236622;23;20506;-76
2022/12/13 05:22:43;;;;;;;0.08;0.08;;;;;;;-2.52;93.22;99515.06;6240820;23;20391;-77
2022/12/13 05:25:08;;;;;;;0.00;0.00;;;;;;;-2.55;93.80;99510.13;6191922;23;20054;-77
2022/12/13 05:27:34;;;;;;;0.00;0.00;;;;;;;-2.51;94.42;99506.00;6193935;23;20049;-77
2022/12/13 05:29:59;;;;;;;0.00;0.00;;;;;;;-2.52;93.73;99504.38;6214800;23;20091;-77
2022/12/13 05:32:24;;;;;;;0.00;0.00;;;;;;;-2.51;93.90;99495.28;6187291;23;20008;-77
2022/12/13 05:34:50;;;;;;;0.00;0.00;;;;;;;-2.69;93.73;99458.41;6217054;23;20000;-76
2022/12/13 05:37:15;;;;;;;0.00;0.00;;;;;;;-2.42;93.74;99488.72;6212492;23;20008;-76
2022/12/13 05:39:41;;;;;;;0.00;0.00;;;;;;;-2.40;93.40;99486.66;6216800;23;20032;-77
2022/12/13 05:42:06;;;;;;;0.00;0.00;;;;;;;-2.39;93.08;99493.69;6216226;23;20031;-77
2022/12/13 05:44:31;;;;;;;0.00;0.00;;;;;;;-2.41;93.46;99495.75;6212331;23;20323;-75
2022/12/13 05:46:58;;;;;;;0.00;0.00;;;;;;;-2.44;93.18;99490.78;6239932;23;20090;-75
2022/12/13 05:49:23;;;;;;;0.00;0.00;;;;;;;-2.45;93.70;99489.16;6211893;23;20065;-74
2022/12/13 05:51:48;;;;;;;0.00;0.00;;;;;;;-2.49;93.28;99475.31;6239542;23;20027;-75
2022/12/13 05:54:14;;;;;;;0.00;0.00;;;;;;;-2.46;93.14;99492.84;6235864;23;20000;-75
2022/12/13 05:56:39;;;;;;;0.00;0.00;;;;;;;-2.47;93.15;99480.47;6239275;23;20004;-75
2022/12/13 05:59:05;;;;;;;0.10;0.10;;;;;;;-2.45;92.96;99483.78;6239586;23;20022;-75
2022/12/13 06:01:30;;;;;;;0.00;0.00;;;;;;;-2.39;92.90;99485.66;6210618;23;20378;-75
2022/12/13 06:03:56;;;;;;;0.00;0.00;;;;;;;-2.35;93.03;99484.22;6213052;23;20011;-75
2022/12/13 06:06:21;;;;;;;0.00;0.00;;;;;;;-2.32;92.65;99483.78;6209973;23;20019;-75
2022/12/13 06:08:46;;;;;;;0.00;0.00;;;;;;;-2.26;93.69;99479.47;6214328;23;20099;-76
2022/12/13 06:11:12;;;;;;;0.00;0.00;;;;;;;-2.18;93.10;99475.75;6187011;23;20011;-76
2022/12/13 06:13:41;;;;;;;0.10;0.10;;;;;;;-2.11;92.06;99473.91;6187857;23;20078;-76
2022/12/13 06:16:07;;;;;;;0.00;0.00;;;;;;;-2.07;93.36;99469.78;6239250;23;20067;-76
2022/12/13 06:18:34;;;;;;;0.00;0.00;;;;;;;-2.02;92.87;99461.13;6214740;23;20012;-76
2022/12/13 06:21:02;;;;;;;0.00;0.00;;;;;;;-1.95;92.76;99468.13;6241291;23;20000;-76
2022/12/13 06:23:29;;;;;;;0.00;0.00;;;;;;;-1.89;91.76;99482.56;6239824;23;20430;-78
2022/12/13 06:25:55;;;;;;;0.00;0.00;;;;;;;-1.88;92.13;99478.84;6240296;23;20071;-77
2022/12/13 06:28:21;;;;;;;0.00;0.00;;;;;;;-1.79;92.26;99482.94;6237933;23;20032;-76
2022/12/13 06:30:47;;;;;;;0.10;0.10;;;;;;;-1.79;92.40;99487.50;6240686;23;20438;-77
2022/12/13 06:33:12;;;;;;;0.00;0.00;;;;;;;-1.80;91.32;99485.84;6213663;23;20008;-78
2022/12/13 06:35:37;;;;;;;0.00;0.00;;;;;;;-1.91;91.35;99462.34;6190897;23;20042;-77
2022/12/13 06:38:04;;;;;;;0.10;0.10;;;;;;;-1.72;90.92;99491.00;6242180;23;20047;-78
2022/12/13 06:40:29;;;;;;;0.00;0.00;;;;;;;-1.72;91.85;99482.97;6213896;23;20000;-78
2022/12/13 06:42:55;;;;;;;0.10;0.10;;;;;;;-1.69;90.66;99493.25;6243576;23;20011;-77
2022/12/13 06:45:20;;;;;;;0.00;0.00;;;;;;;-1.62;91.84;99494.06;6213779;23;20020;-78
2022/12/13 06:47:46;;;;;;;0.00;0.00;;;;;;;-1.64;91.54;99493.44;6241251;23;20016;-76
2022/12/13 06:50:11;;;;;;;0.00;0.00;;;;;;;-1.72;90.98;99491.00;6240399;23;20004;-77
2022/12/13 06:52:37;;;;;;;0.00;0.00;;;;;;;-1.63;90.87;99502.31;6213694;23;20012;-77
2022/12/13 06:55:03;;;;;;;0.10;0.10;;;;;;;-1.73;91.00;99492.03;6216062;23;20004;-75
2022/12/13 06:57:31;;;;;;;0.00;0.00;;;;;;;-1.76;91.23;99503.16;6235971;23;20000;-75
2022/12/13 06:59:57;;;;;;;0.00;0.00;;;;;;;-1.81;90.81;99505.63;6239673;23;20004;-76
2022/12/13 07:02:22;;;;;;;0.00;0.00;;;;;;;-1.90;91.22;99512.25;6238640;23;20035;-76
2022/12/13 07:04:48;;;;;;;0.00;0.00;;;;;;;-2.04;92.22;99512.25;6240468;23;20066;-77
2022/12/13 07:07:15;;;;;;;0.00;0.00;;;;;;;-2.12;91.94;99504.41;6219150;23;20015;-78
2022/12/13 07:09:41;;;;;;;0.10;0.10;;;;;;;-2.19;92.21;99503.56;6239634;23;20346;-77
2022/12/13 07:12:09;;;;;;;0.10;0.10;;;;;;;-2.28;92.48;99510.97;6193050;23;20036;-76
2022/12/13 07:14:37;;;;;;;0.00;0.00;;;;;;;-2.22;92.93;99526.25;6256091;23;20030;-79
2022/12/13 07:17:03;;;;;;;0.00;0.00;;;;;;;-2.34;92.43;99512.63;6218726;23;20008;-75
2022/12/13 07:19:29;;;;;;;0.00;0.00;;;;;;;-2.32;92.24;99515.94;6208981;23;20453;-74
2022/12/13 07:21:55;;;;;;;0.00;0.00;;;;;;;-2.42;92.99;99503.94;6187601;23;20008;-74
2022/12/13 07:24:23;;;;;;;0.10;0.10;;;;;;;-2.39;93.57;99509.75;6216836;23;20014;-75
2022/12/13 07:26:50;;;;;;;0.05;0.05;;;;;;;-2.40;93.31;99508.09;6234201;23;20000;-75
2022/12/13 07:29:16;;;;;;;0.00;0.00;;;;;;;-2.45;93.42;99507.88;6213613;23;20031;-75
2022/12/13 07:31:41;;;;;;;0.10;0.10;;;;;;;-2.47;93.15;99504.56;6189263;23;20031;-76
2022/12/13 07:34:06;;;;;;;0.10;0.10;;;;;;;-2.49;93.66;99503.97;6184350;23;20654;-76
2022/12/13 07:36:32;;;;;;;0.00;0.00;;;;;;;-2.46;93.18;99511.59;6189301;23;20008;-75
2022/12/13 07:38:57;;;;;;;0.00;0.00;;;;;;;-2.49;94.41;99498.59;6207841;23;20008;-76
2022/12/13 07:41:24;;;;;;;0.00;0.00;;;;;;;-2.37;93.87;99513.03;6188993;23;20005;-75
2022/12/13 07:43:53;;;;;;;0.00;0.00;;;;;;;-2.35;94.01;99504.78;6234922;22;20031;-79
2022/12/13 07:46:18;;;;;;;0.00;0.00;;;;;;;-2.32;93.34;99499.88;6265513;22;20018;-82
2022/12/13 07:48:44;;;;;;;0.10;0.10;;;;;;;-2.11;93.39;99514.09;6220989;22;20012;-77
2022/12/13 07:51:11;;;;;;;0.08;0.08;;;;;;;-2.03;93.80;99513.06;6220993;22;20074;-76
2022/12/13 07:53:40;;;;;;;0.00;0.00;;;;;;;-1.92;93.34;99520.50;6270767;22;20075;-75
2022/12/13 07:56:10;;;;;;;0.08;0.08;;;;;;;-1.99;93.09;99509.75;6267187;22;20061;-76
2022/12/13 07:58:36;;;;;;;0.00;0.00;;;;;;;-1.83;92.76;99519.22;6271393;22;20004;-76
2022/12/13 08:01:07;;;;;;;0.00;0.00;;;;;;;-1.71;92.04;99527.47;6242303;22;19999;-77
2022/12/13 08:03:33;;;;;;;0.00;0.00;;;;;;;-1.68;92.28;99518.19;6247161;22;20078;-77
2022/12/13 08:06:00;;;;;;;0.00;0.00;;;;;;;-1.62;92.66;99531.59;6277818;22;20011;-77
2022/12/13 08:08:30;;;;;;;0.00;0.00;;;;;;;-1.64;91.89;99520.25;6250148;22;20052;-78
2022/12/13 08:11:15;;;;;;;0.00;0.00;;;;;;;-1.54;91.97;99521.69;6224402;22;20011;-76
2022/12/13 08:13:41;;;;;;;0.10;0.10;;;;;;;-1.62;91.92;99502.13;6247606;22;19999;-77
2022/12/13 08:16:16;;;;;;;0.00;0.00;;;;;;;-1.60;91.36;99502.72;6248977;22;20095;-77
2022/12/13 08:18:52;;;;;;;0.00;0.00;;;;;;;-1.54;91.74;99510.97;6246132;22;20008;-77
2022/12/13 08:21:18;;;;;;;0.00;0.00;;;;;;;-1.51;91.65;99511.38;6224277;22;20010;-77
2022/12/13 08:23:43;;;;;;;0.00;0.00;;;;;;;-1.53;91.10;99499.19;6271582;22;20003;-77
2022/12/13 08:26:09;;;;;;;0.00;0.00;;;;;;;-1.38;91.61;99523.94;6274440;22;20130;-77
2022/12/13 08:28:36;;;;;;;0.00;0.00;;;;;;;-1.39;91.35;99511.53;6246583;22;20004;-78
2022/12/13 08:31:11;;;;;;;0.00;0.00;;;;;;;-1.24;91.72;99520.19;6223091;22;20019;-78
2022/12/13 08:33:39;;;;;;;0.00;0.00;;;;;;;-1.28;90.69;99510.91;6248233;22;20010;-77
2022/12/13 08:36:14;;;;;;;0.00;0.00;;;;;;;-1.24;90.36;99516.69;6223932;22;20054;-77
2022/12/13 08:38:40;;;;;;;0.10;0.10;;;;;;;-1.11;90.86;99522.00;6247410;22;20015;-77
2022/12/13 08:41:05;;;;;;;0.00;0.00;;;;;;;-1.06;91.06;99522.19;6275900;22;20002;-77
2022/12/13 08:43:40;;;;;;;0.00;0.00;;;;;;;-1.09;89.77;99503.81;6274098;22;20008;-78
2022/12/13 08:46:33;;;;;;;;;;;;;;;;;;;;;
2022/12/13 08:52:26;;;;;;;0.10;0.10;;;;;;;-0.81;89.55;99494.63;6158701;23;20941;-76
2022/12/13 08:55:31;;;;;;;0.10;0.10;;;;;;;-0.84;88.98;99473.56;6273180;22;20010;-76
2022/12/13 08:58:07;;;;;;;;;;;;;;;;;;;;;
2022/12/13 09:01:09;;;;;;;0.10;0.10;;;;;;;-0.74;88.38;99479.31;6250248;22;20090;-77
2022/12/13 09:06:46;;;;;;;0.10;0.10;;;;;;;-0.41;88.08;99485.50;6228233;22;20015;-75
2022/12/13 09:09:14;;;;;;;0.00;0.00;;;;;;;-0.32;86.96;99473.47;6246579;22;20332;-76
2022/12/13 09:11:40;;;;;;;0.00;0.00;;;;;;;-0.21;87.08;99462.00;6222699;22;20019;-76
2022/12/13 09:14:29;;;;;;;0.10;0.10;;;;;;;0.07;87.10;99468.78;6249116;22;19999;-75
2022/12/13 09:20:21;;;;;;;0.03;0.03;;;;;;;0.41;84.98;99463.94;6255134;22;20038;-76
2022/12/13 09:22:52;;;;;;;0.00;0.00;;;;;;;0.59;84.77;99486.53;6277073;22;20007;-75
2022/12/13 09:25:25;;;;;;;0.00;0.00;;;;;;;0.46;84.93;99463.25;6276365;22;20003;-76
2022/12/13 09:27:55;;;;;;;0.00;0.00;;;;;;;0.49;84.46;99463.63;6282001;22;20087;-77
2022/12/13 09:30:26;;;;;;;0.00;0.00;;;;;;;0.43;84.43;99444.88;6280201;22;19999;-76
2022/12/13 09:33:13;;;;;;;;;;;;;;;;;;;;;
2022/12/13 09:35:39;;;;;;;0.00;0.00;;;;;;;0.78;83.60;99473.88;6278312;22;20082;-76
2022/12/13 09:38:41;;;;;;;0.00;0.00;;;;;;;0.70;83.06;99445.38;6251780;22;19999;-77
2022/12/13 09:41:44;;;;;;;;;;;;;;;;;;;;;
2022/12/13 09:44:22;;;;;;;0.00;0.00;;;;;;;1.11;82.22;99451.94;6275179;22;20098;-76
2022/12/13 09:46:59;;;;;;;0.10;0.10;;;;;;;1.21;81.66;99452.22;6243273;23;20474;-76
2022/12/13 09:49:44;;;;;;;0.00;0.00;;;;;;;1.41;81.10;99464.56;6243578;23;20078;-76
2022/12/13 09:52:18;;;;;;;0.00;0.00;;;;;;;1.41;80.75;99464.56;6243625;23;20087;-76
2022/12/13 09:54:46;;;;;;;0.00;0.00;;;;;;;1.44;79.94;99472.19;6245639;23;19996;-76
2022/12/13 09:57:21;;;;;;;0.00;0.00;;;;;;;1.34;80.54;99461.16;6242083;23;20426;-76
2022/12/13 09:59:49;;;;;;;0.00;0.00;;;;;;;1.45;80.13;99483.81;6245141;23;20026;-76
2022/12/13 10:02:24;;;;;;;0.10;0.10;;;;;;;1.37;79.88;99471.47;6244819;23;20011;-75
2022/12/13 10:04:58;;;;;;;0.00;0.00;;;;;;;1.42;80.00;99468.91;6243206;23;20212;-76
2022/12/13 10:07:25;;;;;;;0.10;0.10;;;;;;;1.29;79.71;99458.34;6245286;23;20004;-76
2022/12/13 10:10:02;;;;;;;0.00;0.00;;;;;;;1.22;79.64;99453.84;6244745;23;20008;-77
2022/12/13 10:12:30;;;;;;;0.00;0.00;;;;;;;1.35;79.79;99462.78;6244339;23;20010;-76
2022/12/13 10:15:22;;;;;;;;;;;;;;;;;;;;;
2022/12/13 10:17:54;;;;;;;0.00;0.00;;;;;;;1.22;79.56;99434.97;6244993;23;20083;-76
2022/12/13 10:20:27;;;;;;;0.00;0.00;;;;;;;1.54;79.55;99456.28;6243034;23;20014;-79
2022/12/13 10:22:55;;;;;;;0.00;0.00;;;;;;;1.64;79.07;99449.53;6242833;23;20103;-76
2022/12/13 10:25:58;;;;;;;0.00;0.00;;;;;;;1.93;78.53;99464.00;6244307;23;20000;-76
2022/12/13 10:28:33;;;;;;;0.00;0.00;;;;;;;2.01;78.01;99454.72;6243415;23;20008;-75
2022/12/13 10:31:07;;;;;;;0.00;0.00;;;;;;;2.10;77.78;99453.31;6244326;23;20004;-75
2022/12/13 10:34:03;;;;;;;;;;;;;;;;;;;;;
2022/12/13 10:36:48;;;;;;;;;;;;;;;;;;;;;
2022/12/13 10:39:50;;;;;;;;;;;;;;;;;;;;;
2022/12/13 10:45:15;;;;;;;0.00;0.00;;;;;;;4.22;74.23;99445.47;6247170;22;20008;-76
2022/12/13 10:48:23;;;;;;;0.00;0.00;;;;;;;5.60;71.46;99443.56;6250874;22;20007;-76
2022/12/13 10:51:12;;;;;;;0.10;0.10;;;;;;;7.04;67.11;99454.59;6273319;22;19999;-77
2022/12/13 10:53:45;;;;;;;0.05;0.05;;;;;;;7.85;64.40;99436.78;6248498;22;20011;-77
2022/12/13 10:56:21;;;;;;;0.10;0.10;;;;;;;7.95;62.51;99435.16;6250513;22;20004;-76
2022/12/13 10:59:19;;;;;;;;;;;;;;;;;;;;;
2022/12/13 11:01:45;;;;;;;0.00;0.00;;;;;;;7.28;62.91;99421.47;6278908;22;20086;-77
2022/12/13 11:04:33;;;;;;;0.00;0.00;;;;;;;7.43;63.18;99426.97;6250981;22;20031;-77
2022/12/13 11:07:41;;;;;;;0.00;0.00;;;;;;;8.27;61.47;99414.97;6244343;22;20007;-76
2022/12/13 11:14:10;;;;;;;;;;;;;;;;;;;;;
2022/12/13 11:21:01;;;;;;;;;;;;;;;;;;;;;
2022/12/13 11:24:18;;;;;;;0.00;0.00;;;;;;;6.46;60.25;99375.81;6108766;23;20083;-77
2022/12/13 11:27:55;;;;;;;0.00;0.00;;;;;;;5.64;62.32;99373.38;6155824;23;20160;-77
2022/12/13 11:31:20;;;;;;;;;;;;;;;;;;;;;
2022/12/13 11:34:26;;;;;;;;;;;;;;;;;;;;;
2022/12/13 11:41:41;;;;;;;0.00;0.00;;;;;;;4.95;65.03;99382.19;6123631;23;20433;-77
2022/12/13 11:44:32;;;;;;;0.00;0.00;;;;;;;4.95;65.43;99366.78;6136080;23;20076;-76
2022/12/13 11:47:31;;;;;;;;;;;;;;;;;;;;;
2022/12/13 11:50:31;;;;;;;;;;;;;;;;;;;;;
2022/12/13 11:53:27;;;;;;;0.00;0.00;;;;;;;4.41;65.23;99372.91;6274730;22;20082;-77
2022/12/13 11:56:30;;;;;;;;;;;;;;;;;;;;;
2022/12/13 11:59:29;;;;;;;0.00;0.00;;;;;;;4.32;66.15;99369.81;6276004;22;20174;-77
2022/12/13 12:08:43;;;;;;;0.10;0.10;;;;;;;4.22;66.72;99348.03;6139810;23;20658;-76
2022/12/13 12:12:04;;;;;;;;;;;;;;;;;;;;;
2022/12/13 12:15:29;;;;;;;;;;;;;;;;;;;;;
2022/12/13 12:18:15;;;;;;;0.00;0.00;;;;;;;3.89;65.52;99309.16;6155019;23;20515;-77
2022/12/13 12:21:16;;;;;;;0.00;0.00;;;;;;;4.05;66.34;99333.75;6179797;23;20512;-77
2022/12/13 12:23:57;;;;;;;0.00;0.00;;;;;;;3.98;66.23;99329.31;6244668;22;20091;-76
2022/12/13 12:26:49;;;;;;;;;;;;;;;;;;;;;
2022/12/13 12:29:58;;;;;;;0.00;0.00;;;;;;;4.13;67.17;99327.88;6269583;22;20494;-77
2022/12/13 12:32:58;;;;;;;;;;;;;;;;;;;;;
2022/12/13 12:36:01;;;;;;;0.00;0.00;;;;;;;4.92;65.06;99328.53;6276074;22;20079;-76
2022/12/13 12:39:00;;;;;;;0.10;0.10;;;;;;;5.05;64.19;99307.28;6271441;22;20004;-78
2022/12/13 12:41:52;;;;;;;0.00;0.00;;;;;;;5.31;64.67;99312.91;6245214;22;20003;-77
2022/12/13 12:44:42;;;;;;;;;;;;;;;;;;;;;
2022/12/13 12:47:36;;;;;;;0.03;0.03;;;;;;;5.50;64.12;99310.59;6272429;22;20102;-78
2022/12/13 12:50:31;;;;;;;0.00;0.00;;;;;;;5.50;63.20;99304.38;6193758;22;20003;-76
2022/12/13 12:59:55;;;;;;;0.10;0.10;;;;;;;5.47;63.76;99297.56;6273820;22;20090;-77
2022/12/13 13:03:01;;;;;;;0.00;0.00;;;;;;;5.36;63.35;99291.25;6275701;22;20003;-78
2022/12/13 13:06:09;;;;;;;0.00;0.00;;;;;;;5.44;63.65;99278.31;6248081;22;20011;-78
2022/12/13 13:09:24;;;;;;;0.00;0.00;;;;;;;5.31;62.59;99258.69;6228385;22;20007;-77
2022/12/13 13:12:13;;;;;;;0.00;0.00;;;;;;;5.19;63.31;99271.59;6120838;23;20453;-76
2022/12/13 13:15:32;;;;;;;;;;;;;;;;;;;;;
2022/12/13 13:18:33;;;;;;;0.00;0.00;;;;;;;4.86;64.36;99262.63;6226525;22;20011;-79
2022/12/13 13:21:32;;;;;;;0.00;0.00;;;;;;;4.79;64.35;99286.41;6250185;22;20004;-77